Time;durP1;ratioP1;P1;durP2;ratioP2;P2;SDS_P1;SDS_P2;PMS_P1;PMS_P2;Temp;Humidity;BMP_temperature;BMP_pressure;BME280_temperature;BME280_humidity;BME280_pressure;Samples;Min_cycle;Max_cycle;Signal;HPM_P1;HPM_P2
2021/03/05 00:00:08;;;;;;;8.55;5.10;;;4.70;99.90;;;;;;5050201;28;20021;-75
2021/03/05 00:02:39;;;;;;;6.72;4.30;;;4.70;99.90;;;;;;5050546;28;20037;-74
2021/03/05 00:05:06;;;;;;;8.85;5.13;;;4.70;99.90;;;;;;5050892;28;20021;-75
2021/03/05 00:07:32;;;;;;;8.68;4.95;;;4.60;99.90;;;;;;5036277;28;20492;-75
2021/03/05 00:09:57;;;;;;;8.25;5.13;;;4.50;99.90;;;;;;5046060;28;20048;-75
2021/03/05 00:12:23;;;;;;;8.15;5.07;;;4.50;99.90;;;;;;5030585;28;20042;-76
2021/03/05 00:14:49;;;;;;;10.00;5.50;;;4.50;99.90;;;;;;5036866;28;20056;-74
2021/03/05 00:17:15;;;;;;;9.07;4.60;;;4.50;99.90;;;;;;5049096;28;20133;-75
2021/03/05 00:19:40;;;;;;;6.50;3.78;;;4.50;99.90;;;;;;5065853;28;20029;-75
2021/03/05 00:22:07;;;;;;;7.75;4.93;;;4.40;99.90;;;;;;5049229;28;20376;-76
2021/03/05 00:24:34;;;;;;;6.15;3.67;;;4.40;99.90;;;;;;5050408;28;20479;-74
2021/03/05 00:27:00;;;;;;;7.72;4.03;;;4.30;99.90;;;;;;5049021;28;20048;-75
2021/03/05 00:29:27;;;;;;;7.93;4.43;;;4.30;99.90;;;;;;5049079;28;20124;-75
2021/03/05 00:31:53;;;;;;;6.38;3.80;;;4.30;99.90;;;;;;5050185;28;20041;-75
2021/03/05 00:34:19;;;;;;;6.40;3.88;;;4.20;99.90;;;;;;5048582;28;20040;-75
2021/03/05 00:36:44;;;;;;;4.95;3.25;;;4.10;99.90;;;;;;5047264;28;20056;-75
2021/03/05 00:39:10;;;;;;;6.43;4.03;;;4.10;99.90;;;;;;5082513;28;20112;-75
2021/03/05 00:41:36;;;;;;;7.03;4.47;;;4.10;99.90;;;;;;5082331;28;20037;-75
2021/03/05 00:44:04;;;;;;;11.70;4.47;;;4.10;99.90;;;;;;5050369;28;20025;-75
2021/03/05 00:46:30;;;;;;;6.47;3.80;;;4.10;99.90;;;;;;5048536;28;20037;-75
2021/03/05 00:48:56;;;;;;;7.47;4.20;;;4.10;99.90;;;;;;5053097;28;20028;-75
2021/03/05 00:51:22;;;;;;;7.22;4.30;;;4.00;99.90;;;;;;5052781;28;20039;-75
2021/03/05 00:53:47;;;;;;;7.82;4.18;;;4.00;99.90;;;;;;5086459;28;20090;-75
2021/03/05 00:56:16;;;;;;;8.15;4.45;;;4.00;99.90;;;;;;5051382;28;20037;-75
2021/03/05 00:58:42;;;;;;;6.80;4.25;;;4.00;99.90;;;;;;5069275;28;20029;-75
2021/03/05 01:01:11;;;;;;;9.30;4.97;;;4.00;99.90;;;;;;5068821;28;20082;-74
2021/03/05 01:03:37;;;;;;;6.68;4.00;;;4.00;99.90;;;;;;5086287;28;20033;-75
2021/03/05 01:06:03;;;;;;;5.93;3.97;;;4.10;99.90;;;;;;5069167;28;20033;-75
2021/03/05 01:08:29;;;;;;;7.57;3.83;;;4.10;99.90;;;;;;5048002;28;20117;-75
2021/03/05 01:10:54;;;;;;;6.70;3.78;;;4.10;99.90;;;;;;5034007;28;20097;-75
2021/03/05 01:13:20;;;;;;;5.68;3.70;;;4.10;99.90;;;;;;5049406;28;20037;-75
2021/03/05 01:15:46;;;;;;;7.15;4.00;;;4.10;99.90;;;;;;5047815;28;20028;-75
2021/03/05 01:18:14;;;;;;;5.82;3.20;;;4.10;99.90;;;;;;5051355;28;20033;-75
2021/03/05 01:20:41;;;;;;;7.82;3.65;;;4.00;99.90;;;;;;5051485;28;20022;-74
2021/03/05 01:23:06;;;;;;;6.47;3.35;;;3.90;99.90;;;;;;5051381;28;20471;-74
2021/03/05 01:25:33;;;;;;;8.77;3.72;;;3.90;99.90;;;;;;5053287;28;20032;-74
2021/03/05 01:28:00;;;;;;;6.78;3.72;;;3.90;99.90;;;;;;5051020;28;20037;-74
2021/03/05 01:30:26;;;;;;;5.10;3.33;;;3.80;99.90;;;;;;5051917;28;20045;-75
2021/03/05 01:32:53;;;;;;;5.72;3.38;;;3.80;99.90;;;;;;5052448;28;20029;-75
2021/03/05 01:35:24;;;;;;;7.40;3.13;;;3.80;99.90;;;;;;5052261;28;20052;-74
2021/03/05 01:37:50;;;;;;;6.47;3.22;;;3.90;99.90;;;;;;5034126;28;20041;-74
2021/03/05 01:40:20;;;;;;;8.00;3.75;;;3.90;99.90;;;;;;5053396;28;20021;-75
2021/03/05 01:42:46;;;;;;;5.72;2.85;;;3.80;99.90;;;;;;5053385;28;20041;-74
2021/03/05 01:45:14;;;;;;;6.80;3.78;;;3.70;99.90;;;;;;5053263;28;20131;-74
2021/03/05 01:47:43;;;;;;;7.68;3.63;;;3.70;99.90;;;;;;5051870;28;20078;-74
2021/03/05 01:50:23;;;;;;;6.65;3.15;;;3.70;99.90;;;;;;5052940;28;20043;-74
2021/03/05 01:52:52;;;;;;;5.45;3.00;;;3.70;99.90;;;;;;5051889;28;20044;-74
2021/03/05 01:55:19;;;;;;;5.70;3.20;;;3.70;99.90;;;;;;5084714;28;20033;-75
2021/03/05 01:57:45;;;;;;;6.10;3.17;;;3.60;99.90;;;;;;5043705;28;20197;-74
2021/03/05 02:00:14;;;;;;;4.90;2.88;;;3.60;99.90;;;;;;5042557;28;20408;-74
2021/03/05 02:02:40;;;;;;;6.35;3.20;;;3.60;99.90;;;;;;5043754;28;20025;-74
2021/03/05 02:05:06;;;;;;;8.15;3.75;;;3.60;99.90;;;;;;5052109;28;20033;-76
2021/03/05 02:07:32;;;;;;;10.77;4.15;;;3.60;99.90;;;;;;5038383;28;20667;-74
2021/03/05 02:09:57;;;;;;;7.70;3.80;;;3.70;99.90;;;;;;5032720;28;20037;-75
2021/03/05 02:12:24;;;;;;;6.88;3.20;;;3.60;99.90;;;;;;5032983;28;20064;-75
2021/03/05 02:14:50;;;;;;;6.85;3.65;;;3.60;99.90;;;;;;5054497;28;20113;-74
2021/03/05 02:17:58;;;;;;;8.98;4.05;;;3.60;99.90;;;;;;5050062;28;20048;-74
2021/03/05 02:20:39;;;;;;;11.48;4.82;;;3.50;99.90;;;;;;5047364;28;20091;-74
2021/03/05 02:23:27;;;;;;;8.20;3.70;;;3.50;99.90;;;;;;5052758;28;20031;-74
2021/03/05 02:26:28;;;;;;;10.52;3.90;;;3.40;99.90;;;;;;5052425;28;20021;-75
2021/03/05 02:29:03;;;;;;;10.38;3.97;;;3.50;99.90;;;;;;5051475;28;20045;-74
2021/03/05 02:31:35;;;;;;;9.15;3.70;;;3.40;99.90;;;;;;5051158;28;20029;-74
2021/03/05 02:34:04;;;;;;;9.73;4.55;;;3.40;99.90;;;;;;5049024;28;20028;-74
2021/03/05 02:36:37;;;;;;;9.63;4.10;;;3.40;99.90;;;;;;5050820;28;20458;-74
2021/03/05 02:39:13;;;;;;;7.95;3.78;;;3.40;99.90;;;;;;5051294;28;20032;-74
2021/03/05 02:41:41;;;;;;;9.93;3.80;;;3.40;99.90;;;;;;5052469;28;20060;-75
2021/03/05 02:44:14;;;;;;;10.32;4.63;;;3.40;99.90;;;;;;5052106;28;20028;-74
2021/03/05 02:46:41;;;;;;;9.00;3.90;;;3.30;99.90;;;;;;5050896;28;20033;-74
2021/03/05 02:49:09;;;;;;;10.27;3.38;;;3.40;99.90;;;;;;5051953;28;20060;-74
2021/03/05 02:51:36;;;;;;;9.75;4.65;;;3.30;99.90;;;;;;5050781;28;20040;-75
2021/03/05 02:54:04;;;;;;;8.38;3.92;;;3.30;99.90;;;;;;5051899;28;20236;-75
2021/03/05 02:56:32;;;;;;;8.82;4.10;;;3.30;99.90;;;;;;5049328;28;20037;-74
2021/03/05 02:59:00;;;;;;;9.00;3.75;;;3.30;99.90;;;;;;5066846;28;20032;-74
2021/03/05 03:01:26;;;;;;;10.45;4.03;;;3.30;99.90;;;;;;5050676;28;20044;-74
2021/03/05 03:03:55;;;;;;;9.05;4.70;;;3.30;99.90;;;;;;5051807;28;20418;-74
2021/03/05 03:06:23;;;;;;;10.35;4.78;;;3.30;99.90;;;;;;5046903;28;20061;-74
2021/03/05 03:08:50;;;;;;;10.98;4.60;;;3.20;99.90;;;;;;5031552;28;20037;-74
2021/03/05 03:11:18;;;;;;;10.05;3.83;;;3.20;99.90;;;;;;5031747;28;20481;-74
2021/03/05 03:13:46;;;;;;;10.65;4.07;;;3.20;99.90;;;;;;5071979;28;20025;-74
2021/03/05 03:16:14;;;;;;;12.68;4.18;;;3.20;99.90;;;;;;5061825;28;20056;-73
2021/03/05 03:18:42;;;;;;;11.50;4.63;;;3.10;99.90;;;;;;5071323;28;20476;-74
2021/03/05 03:21:08;;;;;;;12.88;4.78;;;3.10;99.90;;;;;;5071452;28;20032;-74
2021/03/05 03:23:35;;;;;;;13.40;4.38;;;3.10;99.90;;;;;;5071174;28;20028;-74
2021/03/05 03:26:01;;;;;;;10.70;4.55;;;3.10;99.90;;;;;;5071073;28;20028;-74
2021/03/05 03:28:27;;;;;;;9.32;4.30;;;3.00;99.90;;;;;;5069990;28;20028;-74
2021/03/05 03:30:53;;;;;;;8.45;4.07;;;3.00;99.90;;;;;;5071217;28;20430;-75
2021/03/05 03:33:19;;;;;;;7.60;3.60;;;3.00;99.90;;;;;;5103876;28;20492;-74
2021/03/05 03:35:45;;;;;;;9.93;3.95;;;3.00;99.90;;;;;;5069837;28;20033;-74
2021/03/05 03:38:11;;;;;;;9.63;4.40;;;3.00;99.90;;;;;;5059776;28;20049;-74
2021/03/05 03:40:38;;;;;;;13.18;4.45;;;3.00;99.90;;;;;;5063310;28;20026;-74
2021/03/05 03:43:05;;;;;;;8.93;4.20;;;3.00;99.90;;;;;;5031142;28;20049;-75
2021/03/05 03:45:32;;;;;;;11.77;4.82;;;3.00;99.90;;;;;;5063074;28;20033;-74
2021/03/05 03:48:00;;;;;;;10.15;4.30;;;3.00;99.90;;;;;;5029372;28;20064;-74
2021/03/05 03:50:31;;;;;;;11.68;4.60;;;2.90;99.90;;;;;;5029749;28;20407;-74
2021/03/05 03:53:00;;;;;;;11.77;4.78;;;2.90;99.90;;;;;;5029905;28;20079;-75
2021/03/05 03:55:25;;;;;;;10.32;4.25;;;2.90;99.90;;;;;;5029781;28;20030;-74
2021/03/05 03:57:54;;;;;;;12.25;5.00;;;3.00;99.90;;;;;;5061167;28;20414;-74
2021/03/05 04:00:21;;;;;;;8.70;4.03;;;3.00;99.90;;;;;;5030801;28;20037;-74
2021/03/05 04:02:50;;;;;;;8.98;3.95;;;2.90;99.90;;;;;;5030925;28;20040;-74
2021/03/05 04:05:19;;;;;;;11.48;4.15;;;2.90;99.90;;;;;;5046209;28;20492;-75
2021/03/05 04:07:46;;;;;;;10.32;4.28;;;2.90;99.90;;;;;;5029235;28;20036;-74
2021/03/05 04:10:13;;;;;;;11.18;4.63;;;2.90;99.90;;;;;;5044048;28;20369;-74
2021/03/05 04:12:40;;;;;;;11.43;4.85;;;2.90;99.90;;;;;;5047679;28;20163;-75
2021/03/05 04:15:06;;;;;;;9.10;3.92;;;2.80;99.90;;;;;;5082340;28;20487;-74
2021/03/05 04:17:32;;;;;;;12.15;4.60;;;2.90;99.90;;;;;;5047356;28;20594;-75
2021/03/05 04:19:59;;;;;;;13.80;4.60;;;2.80;99.90;;;;;;5050373;28;20104;-74
2021/03/05 04:22:26;;;;;;;11.07;4.13;;;2.80;99.90;;;;;;5049740;28;20104;-74
2021/03/05 04:24:51;;;;;;;9.57;4.07;;;2.80;99.90;;;;;;5082734;28;20025;-74
2021/03/05 04:27:17;;;;;;;10.63;4.28;;;2.70;99.90;;;;;;5080344;28;20438;-74
2021/03/05 04:29:43;;;;;;;11.65;4.30;;;2.70;99.90;;;;;;5049012;28;20170;-74
2021/03/05 04:32:09;;;;;;;10.73;4.53;;;2.70;99.90;;;;;;5050447;28;20032;-74
2021/03/05 04:34:35;;;;;;;9.45;4.43;;;2.70;99.90;;;;;;5050086;28;20025;-74
2021/03/05 04:37:00;;;;;;;10.45;4.75;;;2.60;99.90;;;;;;5047762;28;20369;-74
2021/03/05 04:39:26;;;;;;;11.80;4.13;;;2.60;99.90;;;;;;5050292;28;20029;-73
2021/03/05 04:41:52;;;;;;;11.15;4.38;;;2.60;99.90;;;;;;5049002;28;20025;-74
2021/03/05 04:44:18;;;;;;;10.27;4.43;;;2.60;99.90;;;;;;5045311;28;20620;-74
2021/03/05 04:46:44;;;;;;;10.25;4.40;;;2.50;99.90;;;;;;5048049;28;20119;-74
2021/03/05 04:49:10;;;;;;;7.95;4.18;;;2.50;99.90;;;;;;5049784;28;20036;-74
2021/03/05 04:51:36;;;;;;;11.40;3.97;;;2.50;99.90;;;;;;5048791;28;20048;-73
2021/03/05 04:54:02;;;;;;;11.35;4.82;;;2.50;99.90;;;;;;5082293;28;20033;-75
2021/03/05 04:56:28;;;;;;;9.68;4.05;;;2.50;99.90;;;;;;5047172;28;20040;-74
2021/03/05 04:58:54;;;;;;;10.30;4.05;;;2.50;99.90;;;;;;5048871;28;20055;-74
2021/03/05 05:01:19;;;;;;;8.13;3.47;;;2.50;99.90;;;;;;5049031;28;20483;-74
2021/03/05 05:03:45;;;;;;;10.25;4.05;;;2.50;99.90;;;;;;5049790;28;20468;-74
2021/03/05 05:06:12;;;;;;;8.25;3.35;;;2.50;99.90;;;;;;5048774;28;20062;-74
2021/03/05 05:08:38;;;;;;;10.25;4.50;;;2.50;99.90;;;;;;5046155;28;20087;-74
2021/03/05 05:11:03;;;;;;;14.52;4.53;;;2.50;99.90;;;;;;5046697;28;20037;-74
2021/03/05 05:13:29;;;;;;;9.38;3.53;;;2.50;99.90;;;;;;5049780;28;20037;-74
2021/03/05 05:15:55;;;;;;;10.93;4.68;;;2.50;99.90;;;;;;5049208;28;20053;-74
2021/03/05 05:18:21;;;;;;;8.20;3.67;;;2.50;99.90;;;;;;5048462;28;20075;-74
2021/03/05 05:20:47;;;;;;;9.93;4.85;;;2.50;99.90;;;;;;5047235;28;20025;-74
2021/03/05 05:23:13;;;;;;;10.77;4.15;;;2.50;99.90;;;;;;5049623;28;20036;-74
2021/03/05 05:25:38;;;;;;;10.57;4.35;;;2.50;99.90;;;;;;5048282;28;20498;-74
2021/03/05 05:28:04;;;;;;;8.38;3.70;;;2.50;99.90;;;;;;5048211;28;20043;-74
2021/03/05 05:30:30;;;;;;;12.07;4.63;;;2.50;99.90;;;;;;5047428;28;20475;-74
2021/03/05 05:32:56;;;;;;;9.48;4.32;;;2.50;99.90;;;;;;5077213;28;20048;-74
2021/03/05 05:35:22;;;;;;;9.55;4.13;;;2.50;99.90;;;;;;5053061;28;20041;-74
2021/03/05 05:37:48;;;;;;;9.90;5.05;;;2.50;99.90;;;;;;5051760;28;20087;-74
2021/03/05 05:40:14;;;;;;;13.73;4.18;;;2.60;99.90;;;;;;5053436;28;20025;-74
2021/03/05 05:42:40;;;;;;;10.13;3.83;;;2.60;99.90;;;;;;5046892;28;20086;-74
2021/03/05 05:45:06;;;;;;;10.80;4.30;;;2.60;99.90;;;;;;5052891;28;20116;-74
2021/03/05 05:47:36;;;;;;;11.25;3.85;;;2.60;99.90;;;;;;5083680;28;20048;-74
2021/03/05 05:50:05;;;;;;;9.68;4.38;;;2.60;99.90;;;;;;5079897;28;20056;-74
2021/03/05 05:52:32;;;;;;;8.77;3.78;;;2.60;99.90;;;;;;5052923;28;20442;-74
2021/03/05 05:55:00;;;;;;;9.93;4.55;;;2.60;99.90;;;;;;5052577;28;20021;-74
2021/03/05 05:57:27;;;;;;;10.07;4.57;;;2.60;99.90;;;;;;5049962;28;20037;-74
2021/03/05 05:59:56;;;;;;;15.40;4.60;;;2.60;99.90;;;;;;5052833;28;20043;-74
2021/03/05 06:02:22;;;;;;;8.82;3.83;;;2.60;99.90;;;;;;5043465;28;20037;-74
2021/03/05 06:04:51;;;;;;;9.88;4.78;;;2.60;99.90;;;;;;5047760;28;20029;-74
2021/03/05 06:07:17;;;;;;;11.77;5.22;;;2.60;99.90;;;;;;5034282;28;20051;-74
2021/03/05 06:09:43;;;;;;;8.60;3.75;;;2.60;99.90;;;;;;5052685;28;20033;-74
2021/03/05 06:12:13;;;;;;;10.70;4.00;;;2.60;99.90;;;;;;5052952;28;20037;-74
2021/03/05 06:14:42;;;;;;;9.80;4.40;;;2.60;99.90;;;;;;5065418;28;20128;-74
2021/03/05 06:17:09;;;;;;;9.40;4.18;;;2.70;99.90;;;;;;5103522;28;20071;-74
2021/03/05 06:19:35;;;;;;;11.68;4.43;;;2.70;99.90;;;;;;5091614;28;20033;-74
2021/03/05 06:22:01;;;;;;;9.18;4.50;;;2.70;99.90;;;;;;5085153;28;20385;-74
2021/03/05 06:24:28;;;;;;;11.98;4.85;;;2.60;99.90;;;;;;5063511;28;20058;-74
2021/03/05 06:27:00;;;;;;;10.57;4.47;;;2.60;99.90;;;;;;5103693;28;20029;-75
2021/03/05 06:29:42;;;;;;;9.82;4.95;;;2.60;99.90;;;;;;5105095;28;20040;-75
2021/03/05 06:32:12;;;;;;;13.48;4.72;;;2.60;99.90;;;;;;5072615;28;20059;-75
2021/03/05 06:34:47;;;;;;;9.55;4.43;;;2.60;99.90;;;;;;5059568;28;20032;-75
2021/03/05 06:37:15;;;;;;;10.50;5.35;;;2.60;99.90;;;;;;5050999;28;20122;-75
2021/03/05 06:39:41;;;;;;;9.32;4.28;;;2.70;99.90;;;;;;5051967;28;20025;-75
2021/03/05 06:42:08;;;;;;;11.35;4.05;;;2.70;99.90;;;;;;5050772;28;20641;-75
2021/03/05 06:44:36;;;;;;;12.57;4.95;;;2.70;99.90;;;;;;5052271;28;20488;-75
2021/03/05 06:47:18;;;;;;;9.88;4.82;;;2.70;99.90;;;;;;5042712;28;20029;-75
2021/03/05 06:49:47;;;;;;;8.63;3.95;;;2.80;99.90;;;;;;5083344;28;20434;-75
2021/03/05 06:52:14;;;;;;;14.85;5.53;;;2.80;99.90;;;;;;5082261;28;20024;-75
2021/03/05 06:54:42;;;;;;;10.55;4.68;;;2.80;99.90;;;;;;5061909;28;20028;-75
2021/03/05 06:57:09;;;;;;;13.68;5.00;;;2.80;99.90;;;;;;5039922;28;20037;-75
2021/03/05 06:59:38;;;;;;;8.85;4.13;;;2.90;99.90;;;;;;5046061;28;20135;-75
2021/03/05 07:02:08;;;;;;;10.82;6.00;;;2.90;99.90;;;;;;5064611;28;20025;-75
2021/03/05 07:04:44;;;;;;;9.40;4.60;;;3.00;99.90;;;;;;5062355;28;20066;-75
2021/03/05 07:07:12;;;;;;;13.13;4.55;;;3.00;99.90;;;;;;5065404;28;20119;-75
2021/03/05 07:09:42;;;;;;;10.98;5.60;;;3.10;99.90;;;;;;5051486;28;20063;-75
2021/03/05 07:12:17;;;;;;;12.05;4.25;;;3.10;99.90;;;;;;5083669;28;20036;-74
2021/03/05 07:14:46;;;;;;;12.73;5.20;;;3.10;99.90;;;;;;5050240;28;20525;-75
2021/03/05 07:17:13;;;;;;;9.88;4.55;;;3.10;99.90;;;;;;5048652;28;20025;-76
2021/03/05 07:19:39;;;;;;;11.63;4.90;;;3.10;99.90;;;;;;5051074;28;20029;-75
2021/03/05 07:22:08;;;;;;;13.07;5.10;;;3.10;99.90;;;;;;5050154;28;20017;-75
2021/03/05 07:24:38;;;;;;;9.75;4.72;;;3.00;99.90;;;;;;5049574;28;20025;-75
2021/03/05 07:27:06;;;;;;;9.70;4.20;;;3.00;99.90;;;;;;5048635;28;20123;-76
2021/03/05 07:29:38;;;;;;;9.93;4.50;;;3.00;99.90;;;;;;5048009;28;20404;-75
2021/03/05 07:32:05;;;;;;;11.73;5.07;;;2.90;99.90;;;;;;5083089;28;20427;-74
2021/03/05 07:34:35;;;;;;;9.00;4.40;;;3.00;99.90;;;;;;5049690;28;20033;-75
2021/03/05 07:37:05;;;;;;;12.63;4.82;;;3.10;99.90;;;;;;5045587;28;20058;-74
2021/03/05 07:39:37;;;;;;;8.73;3.95;;;3.10;99.90;;;;;;5049421;28;20033;-75
2021/03/05 07:42:04;;;;;;;9.10;4.15;;;3.10;99.90;;;;;;5049020;28;20036;-75
2021/03/05 07:44:38;;;;;;;8.05;3.88;;;3.20;99.90;;;;;;5048889;28;20107;-75
2021/03/05 07:47:14;;;;;;;11.07;4.45;;;3.20;99.90;;;;;;5048399;28;20175;-75
2021/03/05 07:49:40;;;;;;;10.77;4.93;;;3.30;99.90;;;;;;5082491;28;20040;-75
2021/03/05 07:52:07;;;;;;;10.32;4.47;;;3.30;99.90;;;;;;5050580;28;20514;-76
2021/03/05 07:54:39;;;;;;;10.80;5.05;;;3.30;99.90;;;;;;5082595;28;20174;-75
2021/03/05 07:57:06;;;;;;;8.80;4.53;;;3.30;99.90;;;;;;5046955;28;20502;-75
2021/03/05 07:59:41;;;;;;;11.73;4.85;;;3.30;99.90;;;;;;5083003;28;20599;-76
2021/03/05 08:02:08;;;;;;;9.77;4.25;;;3.30;99.90;;;;;;5046853;28;20553;-75
2021/03/05 08:04:49;;;;;;;11.73;5.00;;;3.30;99.90;;;;;;5050546;28;20047;-75
2021/03/05 08:07:26;;;;;;;13.63;5.63;;;3.30;99.90;;;;;;5049346;28;20112;-76
2021/03/05 08:09:53;;;;;;;11.50;4.78;;;3.40;99.90;;;;;;5049251;28;20648;-75
2021/03/05 08:12:26;;;;;;;12.85;5.25;;;3.40;99.90;;;;;;5049006;28;20040;-74
2021/03/05 08:15:13;;;;;;;9.07;4.53;;;3.20;99.90;;;;;;5048638;28;20033;-75
2021/03/05 08:17:39;;;;;;;8.80;3.90;;;3.20;99.90;;;;;;5049052;28;20061;-77
2021/03/05 08:20:09;;;;;;;11.50;4.18;;;3.30;99.90;;;;;;5050617;28;20063;-75
2021/03/05 08:22:58;;;;;;;12.35;5.03;;;3.30;99.90;;;;;;5048070;28;20033;-75
2021/03/05 08:25:24;;;;;;;12.68;4.15;;;3.30;99.90;;;;;;5041485;28;20048;-76
2021/03/05 08:27:49;;;;;;;8.70;4.35;;;3.30;99.90;;;;;;5048638;28;20024;-76
2021/03/05 08:30:18;;;;;;;12.23;5.18;;;3.30;99.90;;;;;;5065697;28;20039;-76
2021/03/05 08:32:53;;;;;;;8.48;4.32;;;3.30;99.90;;;;;;5050027;28;20057;-76
2021/03/05 08:35:38;;;;;;;10.88;4.13;;;3.30;99.90;;;;;;5050563;28;20127;-76
2021/03/05 08:38:09;;;;;;;12.50;4.60;;;3.30;99.90;;;;;;5048285;28;20040;-76
2021/03/05 08:40:56;;;;;;;12.20;5.00;;;3.40;99.90;;;;;;5037572;28;20025;-76
2021/03/05 08:43:24;;;;;;;7.65;3.53;;;3.40;99.90;;;;;;5042686;28;20029;-79
2021/03/05 08:46:03;;;;;;;7.40;3.63;;;3.40;99.90;;;;;;5050341;28;20061;-77
2021/03/05 08:48:32;;;;;;;5.63;2.97;;;3.30;99.90;;;;;;5042415;28;20029;-76
2021/03/05 08:51:08;;;;;;;12.85;4.28;;;3.20;99.90;;;;;;5044981;28;20151;-77
2021/03/05 08:53:41;;;;;;;8.52;2.90;;;3.00;99.90;;;;;;5045206;28;20045;-76
2021/03/05 08:56:09;;;;;;;6.65;2.90;;;2.80;99.90;;;;;;5046592;28;20056;-76
2021/03/05 08:58:35;;;;;;;5.65;2.60;;;2.60;99.90;;;;;;5044651;28;20112;-75
2021/03/05 09:01:01;;;;;;;5.47;2.55;;;2.50;99.90;;;;;;5044731;28;20107;-77
2021/03/05 09:03:27;;;;;;;5.53;2.72;;;2.50;99.90;;;;;;5038321;28;20021;-78
2021/03/05 09:05:52;;;;;;;3.92;2.30;;;2.40;99.90;;;;;;5043773;28;20028;-75
2021/03/05 09:08:23;;;;;;;6.55;2.35;;;2.40;99.90;;;;;;5041555;28;20064;-76
2021/03/05 09:11:00;;;;;;;7.78;2.40;;;2.30;99.90;;;;;;5040635;28;20041;-76
2021/03/05 09:13:32;;;;;;;4.72;1.90;;;2.40;99.90;;;;;;5080100;28;20224;-75
2021/03/05 09:16:01;;;;;;;4.25;2.08;;;2.50;99.90;;;;;;5081038;28;20025;-76
2021/03/05 09:18:34;;;;;;;4.78;2.15;;;2.60;99.90;;;;;;5043910;28;20041;-75
2021/03/05 09:21:05;;;;;;;5.00;1.88;;;2.70;99.90;;;;;;5078549;28;20021;-76
2021/03/05 09:23:33;;;;;;;5.55;2.60;;;2.80;99.90;;;;;;5046198;28;20033;-76
2021/03/05 09:26:00;;;;;;;4.97;2.28;;;2.80;99.90;;;;;;5046836;28;20032;-76
2021/03/05 09:28:34;;;;;;;5.95;3.17;;;2.90;99.90;;;;;;5047462;28;20033;-76
2021/03/05 09:31:00;;;;;;;5.32;2.67;;;2.90;99.90;;;;;;5030958;28;20025;-75
2021/03/05 09:33:27;;;;;;;6.53;2.88;;;3.00;99.90;;;;;;5049934;28;20456;-75
2021/03/05 09:35:58;;;;;;;5.75;2.85;;;3.00;99.90;;;;;;5047369;28;20051;-76
2021/03/05 09:38:24;;;;;;;5.82;2.72;;;3.00;99.90;;;;;;5048147;28;20496;-76
2021/03/05 09:40:50;;;;;;;6.43;3.00;;;3.00;99.90;;;;;;5049339;28;20055;-77
2021/03/05 09:43:17;;;;;;;7.25;2.72;;;3.00;99.90;;;;;;5047613;28;20029;-77
2021/03/05 09:45:49;;;;;;;11.07;3.50;;;3.00;99.90;;;;;;5047917;28;20068;-76
2021/03/05 09:48:35;;;;;;;5.50;2.83;;;3.00;99.90;;;;;;5047093;28;20041;-76
2021/03/05 09:51:07;;;;;;;;;;;3.10;99.90;;;;;;5043293;28;20439;-75
2021/03/05 09:53:38;;;;;;;8.02;2.65;;;3.20;99.90;;;;;;5049507;28;19970;-78
2021/03/05 09:56:08;;;;;;;6.78;2.65;;;3.20;99.90;;;;;;5049715;28;20116;-77
2021/03/05 09:58:50;;;;;;;7.43;2.78;;;3.20;99.90;;;;;;5049022;28;20047;-77
2021/03/05 10:01:15;;;;;;;8.23;3.15;;;3.20;99.90;;;;;;5074793;28;20025;-74
2021/03/05 10:03:41;;;;;;;7.20;3.17;;;3.20;99.90;;;;;;5060620;28;20164;-75
2021/03/05 10:06:18;;;;;;;6.07;2.80;;;3.10;99.90;;;;;;5049336;28;20022;-76
2021/03/05 10:08:44;;;;;;;6.90;2.70;;;3.20;99.90;;;;;;5048177;28;20120;-76
2021/03/05 10:11:11;;;;;;;6.63;3.20;;;3.20;99.90;;;;;;5030809;28;20328;-76
2021/03/05 10:13:44;;;;;;;7.13;2.58;;;3.30;99.90;;;;;;5048184;28;20061;-76
2021/03/05 10:16:37;;;;;;;6.03;2.47;;;3.30;99.90;;;;;;5043907;28;20033;-75
2021/03/05 10:19:06;;;;;;;8.25;3.00;;;3.30;99.90;;;;;;5046627;28;20029;-76
2021/03/05 10:21:34;;;;;;;5.53;2.33;;;3.20;99.90;;;;;;5048200;28;20060;-76
2021/03/05 10:24:07;;;;;;;5.50;2.60;;;3.20;99.90;;;;;;5063637;28;20040;-75
2021/03/05 10:26:33;;;;;;;5.68;2.90;;;3.20;99.90;;;;;;5046306;28;20029;-76
2021/03/05 10:29:01;;;;;;;6.63;3.05;;;3.20;99.90;;;;;;5063875;28;20524;-76
2021/03/05 10:31:50;;;;;;;6.47;3.10;;;3.30;99.90;;;;;;5048568;28;20053;-76
2021/03/05 10:34:24;;;;;;;7.85;3.38;;;3.50;99.90;;;;;;5047847;28;20017;-76
2021/03/05 10:36:50;;;;;;;6.35;2.60;;;3.60;99.90;;;;;;5045844;28;20037;-76
2021/03/05 10:39:16;;;;;;;9.88;2.80;;;3.70;99.90;;;;;;5048851;28;20381;-77
2021/03/05 10:41:56;;;;;;;5.07;2.38;;;3.70;99.90;;;;;;5048661;28;20131;-75
2021/03/05 10:44:23;;;;;;;5.75;2.63;;;3.70;99.90;;;;;;5047980;28;20044;-76
2021/03/05 10:46:49;;;;;;;3.88;2.03;;;3.60;99.90;;;;;;5079286;28;20037;-77
2021/03/05 10:49:14;;;;;;;3.88;2.17;;;3.60;99.90;;;;;;5049211;28;20036;-74
2021/03/05 10:51:40;;;;;;;3.70;2.25;;;3.60;99.90;;;;;;5080442;28;20083;-76
2021/03/05 10:54:06;;;;;;;5.55;2.45;;;3.60;99.90;;;;;;5047977;28;20025;-76
2021/03/05 10:56:33;;;;;;;3.85;2.03;;;3.60;99.90;;;;;;5048032;28;20124;-75
2021/03/05 10:59:00;;;;;;;7.50;2.70;;;3.70;99.90;;;;;;5048249;28;20025;-76
2021/03/05 11:01:25;;;;;;;4.82;2.22;;;3.70;99.90;;;;;;5047967;28;20068;-75
2021/03/05 11:03:51;;;;;;;3.67;2.03;;;3.70;99.90;;;;;;5065197;28;20056;-77
2021/03/05 11:06:18;;;;;;;3.42;1.85;;;3.70;99.90;;;;;;5048303;28;20082;-77
2021/03/05 11:08:44;;;;;;;3.17;2.10;;;3.60;99.90;;;;;;5082078;28;20377;-79
2021/03/05 11:11:10;;;;;;;4.22;2.30;;;3.60;99.90;;;;;;5082061;28;20033;-76
2021/03/05 11:13:35;;;;;;;4.22;2.33;;;3.60;99.90;;;;;;5050378;28;20029;-77
2021/03/05 11:16:01;;;;;;;3.03;1.98;;;3.60;99.90;;;;;;5015132;28;20060;-78
2021/03/05 11:18:27;;;;;;;6.47;2.42;;;3.60;99.90;;;;;;5047759;28;20087;-78
2021/03/05 11:20:53;;;;;;;4.38;1.92;;;3.60;99.90;;;;;;5051099;28;20044;-81
2021/03/05 11:23:18;;;;;;;4.32;2.42;;;3.60;99.90;;;;;;5049451;28;20033;-77
2021/03/05 11:25:44;;;;;;;6.25;2.10;;;3.70;99.90;;;;;;5029872;28;20037;-78
2021/03/05 11:28:10;;;;;;;5.75;2.38;;;3.70;99.90;;;;;;5048820;28;20491;-79
2021/03/05 11:30:35;;;;;;;5.25;2.67;;;3.80;99.90;;;;;;5047473;28;20083;-78
2021/03/05 11:33:01;;;;;;;5.55;2.53;;;3.90;99.90;;;;;;5048149;28;20036;-78
2021/03/05 11:35:27;;;;;;;3.53;2.28;;;4.00;99.90;;;;;;5030784;28;20045;-77
2021/03/05 11:37:52;;;;;;;4.18;2.33;;;4.00;99.90;;;;;;5046794;28;20029;-78
2021/03/05 11:40:18;;;;;;;3.88;2.35;;;4.20;99.90;;;;;;5048351;28;20107;-78
2021/03/05 11:42:44;;;;;;;3.78;2.38;;;4.30;99.90;;;;;;5043506;28;20033;-78
2021/03/05 11:45:10;;;;;;;3.58;2.03;;;4.30;99.90;;;;;;5076539;28;20032;-78
2021/03/05 11:47:36;;;;;;;4.13;2.17;;;4.30;99.90;;;;;;5038053;28;20087;-77
2021/03/05 11:50:03;;;;;;;4.03;2.38;;;4.20;99.90;;;;;;5043264;28;20037;-79
2021/03/05 11:52:29;;;;;;;4.97;2.38;;;4.10;99.90;;;;;;5046990;28;20451;-77
2021/03/05 11:54:56;;;;;;;5.47;2.40;;;4.10;99.90;;;;;;5043324;28;20056;-79
2021/03/05 11:57:22;;;;;;;3.17;2.30;;;4.10;99.90;;;;;;5072290;28;20145;-79
2021/03/05 11:59:47;;;;;;;2.38;1.77;;;4.10;99.90;;;;;;5047911;28;20524;-80
2021/03/05 12:02:13;;;;;;;3.92;2.10;;;4.10;99.90;;;;;;5043873;28;20024;-77
2021/03/05 12:04:39;;;;;;;2.85;2.10;;;4.20;99.90;;;;;;5047830;28;20037;-77
2021/03/05 12:07:04;;;;;;;3.28;2.13;;;4.30;99.90;;;;;;5045189;28;20065;-77
2021/03/05 12:09:30;;;;;;;4.07;2.03;;;4.30;99.90;;;;;;5046477;28;20110;-78
2021/03/05 12:11:56;;;;;;;4.55;1.90;;;4.40;99.90;;;;;;5045299;28;20033;-77
2021/03/05 12:14:21;;;;;;;4.03;1.83;;;4.40;99.90;;;;;;5046932;28;20496;-78
2021/03/05 12:16:47;;;;;;;5.57;1.55;;;4.30;99.90;;;;;;5078623;28;20586;-76
2021/03/05 12:19:13;;;;;;;2.95;1.63;;;4.30;99.90;;;;;;5047037;28;20112;-78
2021/03/05 12:21:38;;;;;;;2.92;1.48;;;4.30;99.90;;;;;;5080038;28;20408;-78
2021/03/05 12:24:05;;;;;;;3.42;1.35;;;4.30;99.90;;;;;;5078439;28;20672;-76
2021/03/05 12:26:30;;;;;;;7.32;2.13;;;4.30;99.90;;;;;;5046450;28;20037;-78
2021/03/05 12:28:56;;;;;;;3.03;1.42;;;4.40;99.90;;;;;;5047028;28;20017;-77
2021/03/05 12:31:22;;;;;;;2.80;1.60;;;4.40;99.90;;;;;;5045740;28;20032;-77
2021/03/05 12:33:49;;;;;;;2.35;1.25;;;4.50;99.90;;;;;;5029692;28;20029;-78
2021/03/05 12:36:15;;;;;;;1.92;1.02;;;4.60;99.90;;;;;;5044212;28;20033;-76
2021/03/05 12:38:42;;;;;;;4.93;1.33;;;4.70;98.70;;;;;;5061880;28;20036;-78
2021/03/05 12:41:08;;;;;;;1.85;0.90;;;4.80;97.20;;;;;;5079674;28;20724;-79
2021/03/05 12:43:34;;;;;;;2.67;0.90;;;4.80;97.90;;;;;;5045073;28;20571;-77
2021/03/05 12:46:00;;;;;;;2.17;0.93;;;4.90;96.90;;;;;;5045102;28;20061;-78
2021/03/05 12:48:25;;;;;;;4.80;1.23;;;4.90;96.40;;;;;;5028721;28;20029;-77
2021/03/05 12:50:51;;;;;;;2.00;1.02;;;4.90;92.50;;;;;;5046863;28;20040;-78
2021/03/05 12:53:17;;;;;;;0.98;0.70;;;4.90;94.10;;;;;;5046348;28;20033;-79
2021/03/05 12:55:42;;;;;;;2.60;1.08;;;4.90;95.00;;;;;;5045000;28;20033;-79
2021/03/05 12:58:08;;;;;;;1.40;0.80;;;4.90;93.90;;;;;;5044384;28;20120;-76
2021/03/05 13:00:34;;;;;;;3.22;1.15;;;5.00;97.70;;;;;;5050359;28;20043;-77